createdAt,value
2019-06-15T00:02:42.664Z,5.97
2019-06-15T00:05:30.877Z,5.50
2019-06-15T00:08:18.659Z,5.90
2019-06-15T00:11:06.412Z,7.20
2019-06-15T00:13:54.197Z,10.13
2019-06-15T00:16:41.993Z,5.20
2019-06-15T00:19:29.756Z,4.97
2019-06-15T00:22:17.541Z,5.50
2019-06-15T00:25:24.616Z,5.37
2019-06-15T00:28:12.402Z,6.93
2019-06-15T00:30:51.162Z,8.20
2019-06-15T00:33:38.947Z,5.57
2019-06-15T00:36:26.735Z,15.33
2019-06-15T00:39:14.485Z,7.73
2019-06-15T00:42:02.287Z,5.37
2019-06-15T00:44:50.050Z,7.57
2019-06-15T00:47:37.827Z,7.37
2019-06-15T00:50:25.620Z,5.60
2019-06-15T00:53:13.380Z,5.47
2019-06-15T00:56:01.197Z,8.53
2019-06-15T00:58:48.983Z,9.27
2019-06-15T01:01:36.818Z,6.40
2019-06-15T01:04:24.625Z,8.60
2019-06-15T01:07:12.381Z,9.77
2019-06-15T01:10:00.155Z,8.07
2019-06-15T01:12:47.948Z,9.30
2019-06-15T01:15:35.716Z,10.50
2019-06-15T01:18:23.503Z,9.03
2019-06-15T01:21:11.256Z,8.10
2019-06-15T01:23:59.031Z,8.90
2019-06-15T01:26:46.792Z,7.03
2019-06-15T01:29:34.904Z,7.53
2019-06-15T01:32:22.711Z,9.73
2019-06-15T01:35:10.534Z,7.80
2019-06-15T01:37:58.342Z,9.63
2019-06-15T01:40:46.111Z,7.03
2019-06-15T01:43:33.895Z,7.57
2019-06-15T01:46:21.660Z,7.23
2019-06-15T01:49:09.443Z,9.97
2019-06-15T01:51:57.195Z,7.10
2019-06-15T01:54:44.979Z,6.67
2019-06-15T01:57:32.754Z,9.60
2019-06-15T02:00:41.262Z,7.27
2019-06-15T02:03:29.043Z,12.03
2019-06-15T02:06:16.831Z,7.57
2019-06-15T02:09:25.314Z,7.47
2019-06-15T02:12:13.079Z,6.37
2019-06-15T02:15:00.841Z,7.37
2019-06-15T02:17:48.687Z,6.53
2019-06-15T02:20:17.236Z,6.40
2019-06-15T02:22:58.269Z,8.37
2019-06-15T02:25:38.784Z,8.70
2019-06-15T02:28:19.708Z,7.53
2019-06-15T02:31:00.599Z,10.37
2019-06-15T02:33:41.736Z,6.70
2019-06-15T02:36:22.539Z,8.30
2019-06-15T02:39:04.505Z,6.77
2019-06-15T02:41:45.324Z,6.80
2019-06-15T02:44:25.880Z,6.97
2019-06-15T02:47:06.773Z,7.97
2019-06-15T02:49:47.580Z,7.30
2019-06-15T02:52:28.300Z,7.00
2019-06-15T02:55:09.063Z,8.30
2019-06-15T02:57:49.739Z,9.43
2019-06-15T03:00:30.824Z,10.30
2019-06-15T03:03:11.478Z,8.40
2019-06-15T03:05:52.257Z,11.03
2019-06-15T03:08:32.730Z,13.53
2019-06-15T03:11:13.196Z,8.80
2019-06-15T03:13:54.097Z,6.93
2019-06-15T03:16:34.634Z,7.43
2019-06-15T03:19:15.423Z,8.20
2019-06-15T03:21:43.883Z,7.13
2019-06-15T03:24:31.656Z,7.20
2019-06-15T03:27:19.418Z,6.57
2019-06-15T03:30:07.476Z,11.47
2019-06-15T03:32:55.255Z,7.73
2019-06-15T03:35:43.007Z,7.07
2019-06-15T03:38:30.791Z,7.13
2019-06-15T03:41:18.536Z,9.13
2019-06-15T03:44:06.311Z,7.63
2019-06-15T03:46:54.071Z,8.73
2019-06-15T03:49:42.208Z,8.13
2019-06-15T03:52:29.959Z,8.17
2019-06-15T03:55:17.742Z,9.97
2019-06-15T03:58:05.583Z,8.07
2019-06-15T04:01:12.708Z,8.90
2019-06-15T04:04:00.463Z,10.73
2019-06-15T04:09:25.167Z,12.33
2019-06-15T04:12:12.919Z,14.67
2019-06-15T04:15:00.747Z,9.40
2019-06-15T04:17:48.557Z,14.20
2019-06-15T04:20:36.350Z,9.53
2019-06-15T04:23:16.880Z,10.67
2019-06-15T04:25:57.626Z,11.60
2019-06-15T04:28:38.467Z,10.77
2019-06-15T04:31:19.257Z,11.07
2019-06-15T04:33:59.652Z,11.73
2019-06-15T04:36:40.515Z,13.03
2019-06-15T04:39:21.496Z,12.07
2019-06-15T04:42:02.435Z,14.43
2019-06-15T04:44:43.107Z,12.33
2019-06-15T04:47:23.589Z,13.47
2019-06-15T04:50:04.656Z,12.97
2019-06-15T04:52:45.367Z,14.43
2019-06-15T04:55:26.100Z,16.57
2019-06-15T04:58:06.696Z,15.53
2019-06-15T05:00:47.240Z,16.63
2019-06-15T05:03:27.603Z,17.40
2019-06-15T05:06:08.219Z,17.37
2019-06-15T05:08:48.691Z,18.67
2019-06-15T05:11:29.487Z,17.37
2019-06-15T05:14:10.516Z,18.17
2019-06-15T05:16:50.927Z,18.63
2019-06-15T05:19:31.279Z,17.37
2019-06-15T05:22:12.213Z,17.97
2019-06-15T05:24:52.982Z,17.93
2019-06-15T05:27:33.522Z,18.53
2019-06-15T05:30:14.299Z,18.77
2019-06-15T05:32:54.984Z,25.87
2019-06-15T05:35:35.761Z,19.47
2019-06-15T05:38:16.527Z,20.93
2019-06-15T05:40:57.528Z,20.50
2019-06-15T05:43:38.250Z,21.53
2019-06-15T05:46:19.033Z,21.93
2019-06-15T05:48:47.465Z,23.97
2019-06-15T05:51:35.311Z,21.37
2019-06-15T05:54:23.114Z,22.87
2019-06-15T05:56:51.535Z,24.13
2019-06-15T05:59:39.340Z,26.43
2019-06-15T06:02:27.171Z,27.27
2019-06-15T06:05:15.010Z,27.63
2019-06-15T06:08:02.790Z,26.50
2019-06-15T06:10:50.567Z,36.77
2019-06-15T06:13:38.491Z,27.03
2019-06-15T06:16:27.907Z,27.97
2019-06-15T06:19:15.698Z,30.00
2019-06-15T06:22:03.497Z,33.40
2019-06-15T06:24:51.260Z,38.47
2019-06-15T06:27:39.043Z,45.37
2019-06-15T06:30:19.909Z,43.37
2019-06-15T06:33:00.765Z,56.27
2019-06-15T06:35:41.743Z,38.30
2019-06-15T06:38:22.396Z,40.57
2019-06-15T06:41:03.209Z,37.33
2019-06-15T06:43:43.952Z,37.17
2019-06-15T06:46:24.860Z,37.37
2019-06-15T06:49:05.356Z,35.33
2019-06-15T06:51:46.317Z,42.20
2019-06-15T06:54:26.923Z,57.80
2019-06-15T06:56:55.376Z,46.30
2019-06-15T06:59:43.157Z,49.10
2019-06-15T07:02:30.922Z,50.30
2019-06-15T07:05:18.775Z,46.37
2019-06-15T07:08:06.557Z,47.27
2019-06-15T07:10:54.323Z,44.87
2019-06-15T07:13:42.464Z,37.97
2019-06-15T07:16:30.395Z,35.50
2019-06-15T07:19:18.195Z,32.50
2019-06-15T07:22:05.965Z,28.77
2019-06-15T07:24:46.325Z,22.83
2019-06-15T07:27:27.198Z,27.10
2019-06-15T07:30:10.388Z,30.93
2019-06-15T07:32:50.679Z,38.07
2019-06-15T07:35:31.715Z,28.77
2019-06-15T07:38:12.455Z,36.20
2019-06-15T07:40:53.555Z,32.87
2019-06-15T07:43:34.576Z,42.00
2019-06-15T07:46:15.087Z,38.20
2019-06-15T07:48:43.510Z,30.40
2019-06-15T07:51:31.286Z,36.87
2019-06-15T07:54:19.061Z,35.50
2019-06-15T07:57:06.853Z,38.57
2019-06-15T07:59:54.626Z,33.83
2019-06-15T08:02:42.410Z,39.37
2019-06-15T08:05:30.167Z,34.97
2019-06-15T08:08:17.954Z,36.13
2019-06-15T08:11:05.751Z,39.30
2019-06-15T08:13:53.287Z,36.13
2019-06-15T08:16:41.063Z,29.20
2019-06-15T08:19:28.849Z,31.67
2019-06-15T08:22:16.763Z,35.13
2019-06-15T08:25:25.256Z,38.23
2019-06-15T08:28:13.053Z,31.03
2019-06-15T08:31:00.808Z,35.10
2019-06-15T08:33:41.060Z,32.53
2019-06-15T08:36:21.667Z,27.47
2019-06-15T08:39:02.632Z,31.13
2019-06-15T08:41:43.188Z,29.20
2019-06-15T08:44:23.968Z,29.73
2019-06-15T08:47:04.748Z,27.07
2019-06-15T08:49:45.467Z,29.33
2019-06-15T08:52:26.147Z,26.80
2019-06-15T08:55:07.031Z,28.83
2019-06-15T08:57:47.599Z,24.03
2019-06-15T09:00:28.552Z,20.67
2019-06-15T09:03:09.085Z,22.17
2019-06-15T09:05:49.752Z,27.80
2019-06-15T09:08:30.348Z,24.67
2019-06-15T09:11:11.167Z,25.53
2019-06-15T09:13:51.683Z,29.97
2019-06-15T09:16:32.636Z,26.23
2019-06-15T09:19:13.356Z,22.83
2019-06-15T09:21:54.294Z,19.13
2019-06-15T09:24:34.802Z,23.73
2019-06-15T09:27:15.632Z,17.43
2019-06-15T09:29:56.447Z,17.57
2019-06-15T09:32:37.133Z,15.83
2019-06-15T09:35:18.313Z,15.73
2019-06-15T09:37:58.976Z,13.73
2019-06-15T09:40:40.110Z,14.90
2019-06-15T09:43:20.907Z,20.27
2019-06-15T09:46:01.740Z,19.10
2019-06-15T09:48:41.976Z,18.77
2019-06-15T09:51:22.863Z,18.10
2019-06-15T09:54:04.077Z,15.43
2019-06-15T09:56:45.039Z,11.03
2019-06-15T09:59:26.539Z,18.60
2019-06-15T10:02:06.836Z,16.80
2019-06-15T10:04:47.781Z,17.87
2019-06-15T10:07:28.602Z,14.70
2019-06-15T10:10:09.356Z,19.90
2019-06-15T10:12:49.925Z,13.17
2019-06-15T10:15:30.909Z,16.67
2019-06-15T10:18:11.651Z,16.27
2019-06-15T10:20:52.463Z,15.67
2019-06-15T10:23:33.662Z,15.97
2019-06-15T10:26:14.307Z,12.60
2019-06-15T10:28:55.235Z,14.13
2019-06-15T10:31:35.764Z,11.83
2019-06-15T10:34:16.675Z,17.97
2019-06-15T10:36:57.749Z,16.37
2019-06-15T10:39:39.036Z,13.40
2019-06-15T10:42:22.626Z,14.80
2019-06-15T10:45:01.148Z,14.93
2019-06-15T10:47:29.563Z,15.30
2019-06-15T10:50:17.415Z,17.50
2019-06-15T10:53:05.188Z,15.97
2019-06-15T10:55:53.051Z,19.27
2019-06-15T10:58:40.816Z,19.27
2019-06-15T11:01:28.600Z,15.73
2019-06-15T11:04:16.436Z,15.67
2019-06-15T11:07:04.515Z,13.73
2019-06-15T11:09:52.295Z,14.90
2019-06-15T11:12:46.376Z,15.63
2019-06-15T11:15:29.733Z,14.17
2019-06-15T11:18:17.502Z,16.33
2019-06-15T11:21:05.287Z,13.57
2019-06-15T11:23:53.049Z,18.40
2019-06-15T11:26:33.307Z,16.43
2019-06-15T11:29:14.256Z,16.90
2019-06-15T11:31:55.111Z,17.17
2019-06-15T11:34:35.952Z,15.97
2019-06-15T11:37:17.237Z,18.53
2019-06-15T11:39:57.783Z,17.80
2019-06-15T11:42:38.626Z,19.73
2019-06-15T11:45:20.388Z,22.37
2019-06-15T11:48:01.476Z,20.80
2019-06-15T11:50:42.175Z,19.77
2019-06-15T11:53:22.772Z,19.23
2019-06-15T11:56:03.575Z,17.80
2019-06-15T11:58:44.463Z,16.23
2019-06-15T12:01:25.154Z,19.13
2019-06-15T12:04:05.925Z,19.90
2019-06-15T12:06:46.817Z,17.23
2019-06-15T12:09:27.784Z,19.23
2019-06-15T12:12:08.962Z,20.20
2019-06-15T12:14:49.428Z,21.50
2019-06-15T12:17:30.400Z,19.50
2019-06-15T12:20:11.313Z,16.17
2019-06-15T12:22:39.841Z,22.13
2019-06-15T12:25:27.705Z,21.43
2019-06-15T12:28:15.468Z,18.57
2019-06-15T12:31:03.298Z,20.73
2019-06-15T12:33:43.694Z,23.00
2019-06-15T12:36:24.291Z,22.60
2019-06-15T12:39:04.980Z,20.03
2019-06-15T12:41:45.855Z,23.17
2019-06-15T12:44:26.734Z,23.97
2019-06-15T12:47:07.487Z,23.80
2019-06-15T12:49:48.184Z,24.23
2019-06-15T12:52:28.947Z,28.07
2019-06-15T12:58:04.406Z,21.83
2019-06-15T13:01:02.391Z,25.50
2019-06-15T13:03:41.685Z,27.37
2019-06-15T13:06:29.488Z,19.00
2019-06-15T13:09:17.283Z,26.30
2019-06-15T13:12:05.375Z,19.13
2019-06-15T13:14:53.199Z,18.97
2019-06-15T13:17:41.355Z,21.70
2019-06-15T13:20:29.521Z,21.43
2019-06-15T13:23:17.320Z,25.77
2019-06-15T13:26:05.192Z,23.83
2019-06-15T13:28:52.952Z,21.53
2019-06-15T13:31:41.284Z,20.97
2019-06-15T13:34:30.855Z,21.80
2019-06-15T13:37:11.747Z,24.17
2019-06-15T13:39:52.515Z,30.37
2019-06-15T13:42:33.200Z,27.37
2019-06-15T13:45:14.248Z,27.23
2019-06-15T13:47:55.355Z,29.20
2019-06-15T13:50:23.806Z,25.67
2019-06-15T13:53:11.832Z,27.10
2019-06-15T13:55:59.629Z,26.23
2019-06-15T13:58:47.420Z,27.77
2019-06-15T14:01:35.299Z,26.93
2019-06-15T14:04:23.084Z,30.70
2019-06-15T14:07:10.896Z,32.57
2019-06-15T14:09:58.665Z,32.43
2019-06-15T14:12:46.523Z,33.53
2019-06-15T14:15:34.301Z,35.43
2019-06-15T14:18:22.081Z,32.60
2019-06-15T14:21:09.864Z,34.33
2019-06-15T14:23:57.658Z,38.77
2019-06-15T14:26:38.779Z,38.27
2019-06-15T14:29:19.640Z,34.27
2019-06-15T14:32:00.347Z,31.63
2019-06-15T14:34:40.971Z,32.60
2019-06-15T14:37:21.683Z,31.70
2019-06-15T14:40:02.702Z,29.13
2019-06-15T14:42:43.688Z,29.73
2019-06-15T14:45:24.617Z,27.73
2019-06-15T14:48:05.436Z,25.53
2019-06-15T14:50:46.248Z,21.90
2019-06-15T14:53:26.891Z,21.60
2019-06-15T14:56:07.759Z,22.13
2019-06-15T14:58:48.498Z,16.40
2019-06-15T15:01:30.101Z,14.70
2019-06-15T15:04:10.879Z,15.03
2019-06-15T15:06:51.997Z,14.53
2019-06-15T15:09:33.011Z,13.40
2019-06-15T15:12:16.030Z,11.33
2019-06-15T15:14:56.805Z,11.27
2019-06-15T15:17:37.416Z,11.67
2019-06-15T15:20:18.263Z,10.50
2019-06-15T15:22:59.079Z,9.83
2019-06-15T15:25:40.087Z,10.43
2019-06-15T15:28:21.345Z,9.43
2019-06-15T15:31:02.198Z,10.13
2019-06-15T15:33:42.940Z,8.30
2019-06-15T15:36:26.147Z,6.43
2019-06-15T15:39:09.931Z,8.00
2019-06-15T15:41:48.959Z,6.30
2019-06-15T15:44:29.942Z,5.70
2019-06-15T15:47:10.561Z,5.93
2019-06-15T15:49:51.065Z,7.63
2019-06-15T15:52:31.846Z,7.70
2019-06-15T15:55:12.163Z,6.10
2019-06-15T15:57:53.074Z,5.83
2019-06-15T16:00:33.815Z,9.17
2019-06-15T16:03:15.982Z,7.77
2019-06-15T16:05:56.527Z,3.87
2019-06-15T16:08:28.223Z,4.93
2019-06-15T16:11:16.315Z,5.53
2019-06-15T16:14:06.961Z,6.97
2019-06-15T16:16:55.855Z,5.10
2019-06-15T16:19:26.088Z,7.20
2019-06-15T16:21:55.953Z,7.43
2019-06-15T16:27:12.334Z,5.37
2019-06-15T16:29:40.767Z,6.83
2019-06-15T16:32:21.584Z,5.53
2019-06-15T16:35:02.291Z,6.80
2019-06-15T16:37:42.976Z,6.27
2019-06-15T16:40:26.208Z,5.27
2019-06-15T16:43:07.171Z,6.27
2019-06-15T16:45:48.266Z,7.10
2019-06-15T16:48:28.842Z,6.13
2019-06-15T16:51:09.572Z,5.67
2019-06-15T16:53:50.431Z,4.97
2019-06-15T16:56:31.218Z,5.87
2019-06-15T16:59:12.071Z,5.23
2019-06-15T17:01:52.490Z,5.33
2019-06-15T17:04:33.164Z,7.23
2019-06-15T17:07:13.734Z,9.17
2019-06-15T17:09:56.819Z,5.90
2019-06-15T17:12:37.313Z,14.43
2019-06-15T17:15:18.341Z,6.50
2019-06-15T17:17:59.283Z,6.37
2019-06-15T17:20:40.039Z,5.30
2019-06-15T17:23:20.471Z,5.93
2019-06-15T17:26:01.287Z,9.37
2019-06-15T17:28:42.116Z,7.63
2019-06-15T17:31:22.731Z,62.83
2019-06-15T17:34:03.794Z,97.20
2019-06-15T17:36:47.075Z,24.47
2019-06-15T17:39:29.629Z,18.33
2019-06-15T17:42:09.858Z,13.73
2019-06-15T17:44:50.179Z,113.00
2019-06-15T17:47:30.584Z,13.70
2019-06-15T17:50:11.567Z,26.40
2019-06-15T17:52:52.267Z,15.30
2019-06-15T17:55:33.367Z,28.30
2019-06-15T17:58:16.667Z,18.27
2019-06-15T18:00:57.579Z,167.40
2019-06-15T18:03:50.635Z,22.00
2019-06-15T18:06:20.152Z,10.87
2019-06-15T18:09:28.653Z,7.03
2019-06-15T18:12:16.440Z,6.93
2019-06-15T18:15:23.589Z,13.70
2019-06-15T18:18:11.377Z,8.07
2019-06-15T18:20:59.216Z,5.00
2019-06-15T18:23:46.999Z,8.20
2019-06-15T18:26:36.531Z,7.40
2019-06-15T18:29:26.316Z,5.47
2019-06-15T18:32:13.822Z,4.53
2019-06-15T18:35:01.655Z,5.10
2019-06-15T18:37:49.443Z,6.50
2019-06-15T18:40:37.470Z,4.87
2019-06-15T18:43:26.199Z,4.63
2019-06-15T18:46:14.715Z,5.87
2019-06-15T18:49:02.489Z,6.20
2019-06-15T18:51:50.258Z,3.97
2019-06-15T18:54:38.032Z,4.77
2019-06-15T18:57:26.935Z,8.33
2019-06-15T19:00:08.487Z,4.80
2019-06-15T19:02:49.185Z,4.00
2019-06-15T19:05:29.645Z,3.63
2019-06-15T19:08:10.611Z,3.13
2019-06-15T19:10:51.728Z,5.90
2019-06-15T19:13:32.067Z,3.77
2019-06-15T19:16:13.091Z,3.37
2019-06-15T19:18:56.554Z,4.10
2019-06-15T19:21:37.045Z,2.60
2019-06-15T19:24:17.974Z,5.50
2019-06-15T19:26:58.524Z,4.70
2019-06-15T19:29:39.424Z,3.90
2019-06-15T19:32:20.141Z,4.60
2019-06-15T19:35:01.178Z,6.60
2019-06-15T19:37:42.393Z,4.53
2019-06-15T19:40:22.964Z,7.20
2019-06-15T19:43:06.319Z,3.40
2019-06-15T19:45:46.128Z,5.07
2019-06-15T19:48:27.040Z,4.50
2019-06-15T19:51:10.151Z,4.30
2019-06-15T19:53:50.157Z,4.60
2019-06-15T19:56:30.490Z,5.70
2019-06-15T20:02:24.061Z,5.50
2019-06-15T20:05:04.755Z,6.13
2019-06-15T20:07:46.580Z,5.67
2019-06-15T20:10:27.290Z,8.53
2019-06-15T20:13:07.951Z,8.90
2019-06-15T20:15:48.505Z,5.40
2019-06-15T20:18:30.113Z,4.77
2019-06-15T20:21:11.096Z,6.27
2019-06-15T20:23:51.902Z,5.47
2019-06-15T20:26:32.718Z,6.10
2019-06-15T20:29:13.551Z,3.90
2019-06-15T20:31:54.108Z,3.13
2019-06-15T20:34:37.021Z,2.63
2019-06-15T20:37:17.723Z,2.67
2019-06-15T20:39:58.628Z,2.97
2019-06-15T20:42:39.259Z,5.13
2019-06-15T20:45:19.723Z,1.57
2019-06-15T20:48:00.549Z,8.27
2019-06-15T20:50:41.321Z,1.50
2019-06-15T20:53:22.107Z,2.90
2019-06-15T20:56:03.011Z,2.27
2019-06-15T20:58:43.804Z,5.33
2019-06-15T21:01:25.998Z,2.33
2019-06-15T21:04:07.487Z,2.80
2019-06-15T21:06:47.848Z,3.43
2019-06-15T21:09:28.747Z,4.97
2019-06-15T21:12:09.377Z,3.10
2019-06-15T21:14:50.277Z,4.80
2019-06-15T21:17:30.729Z,3.47
2019-06-15T21:20:11.723Z,3.07
2019-06-15T21:22:52.257Z,2.97
2019-06-15T21:25:33.033Z,4.33
2019-06-15T21:28:13.675Z,2.60
2019-06-15T21:30:54.828Z,3.20
2019-06-15T21:33:36.056Z,3.23
2019-06-15T21:36:17.403Z,3.57
2019-06-15T21:38:58.398Z,3.80
2019-06-15T21:41:38.814Z,4.47
2019-06-15T21:44:19.278Z,4.07
2019-06-15T21:46:59.932Z,3.17
2019-06-15T21:49:40.736Z,2.97
2019-06-15T21:52:21.068Z,4.00
2019-06-15T21:55:01.861Z,4.47
2019-06-15T21:57:42.654Z,3.63
2019-06-15T22:00:28.162Z,5.63
2019-06-15T22:03:05.408Z,5.93
2019-06-15T22:05:33.834Z,4.40
2019-06-15T22:08:02.466Z,5.77
2019-06-15T22:10:31.071Z,5.83
2019-06-15T22:12:59.583Z,5.80
2019-06-15T22:15:27.995Z,4.93
2019-06-15T22:17:56.426Z,3.33
2019-06-15T22:20:26.319Z,5.33
2019-06-15T22:22:55.091Z,4.93
2019-06-15T22:25:23.500Z,7.73
2019-06-15T22:27:52.016Z,4.50
2019-06-15T22:30:20.951Z,5.07
2019-06-15T22:32:49.439Z,6.67
2019-06-15T22:35:17.931Z,3.87
2019-06-15T22:37:46.785Z,5.97
2019-06-15T22:40:16.529Z,4.47
2019-06-15T22:42:47.020Z,5.40
2019-06-15T22:45:17.270Z,5.60
2019-06-15T22:47:46.756Z,5.07
2019-06-15T22:50:16.148Z,4.47
2019-06-15T22:52:47.171Z,7.53
2019-06-15T22:55:16.550Z,6.67
2019-06-15T22:57:46.117Z,6.17
2019-06-15T23:00:17.199Z,9.57
2019-06-15T23:02:46.181Z,6.87
2019-06-15T23:05:16.945Z,5.50
2019-06-15T23:07:46.979Z,5.03
2019-06-15T23:10:16.658Z,5.97
2019-06-15T23:12:46.425Z,5.17
2019-06-15T23:15:17.340Z,5.97
2019-06-15T23:17:46.709Z,6.13
2019-06-15T23:20:17.118Z,6.40
2019-06-15T23:22:46.799Z,6.43
2019-06-15T23:25:16.746Z,6.03
2019-06-15T23:27:46.897Z,5.83
2019-06-15T23:30:16.130Z,5.20
2019-06-15T23:32:46.891Z,7.73
2019-06-15T23:35:16.822Z,4.53
2019-06-15T23:37:46.496Z,8.80
2019-06-15T23:40:22.855Z,4.93
2019-06-15T23:42:51.361Z,5.20
2019-06-15T23:45:20.803Z,4.47
2019-06-15T23:47:49.673Z,3.73
2019-06-15T23:50:20.719Z,3.27
2019-06-15T23:52:49.403Z,5.90
2019-06-15T23:55:18.362Z,4.57
2019-06-15T23:57:46.786Z,5.33
